createdAt,value
2022-11-16T00:01:43.735Z,5.13
2022-11-16T00:04:12.847Z,4.65
2022-11-16T00:06:42.230Z,6.07
2022-11-16T00:09:26.745Z,5.72
2022-11-16T00:11:58.554Z,5.72
2022-11-16T00:14:28.933Z,6.85
2022-11-16T00:16:57.289Z,5.90
2022-11-16T00:19:26.290Z,5.80
2022-11-16T00:21:54.672Z,5.72
2022-11-16T00:24:24.525Z,6.03
2022-11-16T00:26:56.083Z,6.50
2022-11-16T00:29:25.591Z,6.30
2022-11-16T00:31:53.952Z,5.80
2022-11-16T00:34:22.425Z,5.68
2022-11-16T00:36:50.303Z,5.65
2022-11-16T00:39:19.368Z,5.20
2022-11-16T00:41:47.510Z,5.70
2022-11-16T00:44:17.843Z,5.95
2022-11-16T00:46:45.772Z,6.60
2022-11-16T00:49:13.594Z,5.90
2022-11-16T00:51:42.704Z,5.88
2022-11-16T00:54:12.939Z,6.93
2022-11-16T00:56:41.105Z,5.63
2022-11-16T00:59:09.103Z,6.25
2022-11-16T01:01:38.530Z,5.30
2022-11-16T01:04:06.327Z,6.05
2022-11-16T01:06:34.102Z,6.00
2022-11-16T01:09:02.140Z,6.03
2022-11-16T01:11:47.699Z,5.55
2022-11-16T01:14:16.015Z,5.10
2022-11-16T01:16:45.212Z,5.68
2022-11-16T01:19:12.886Z,5.95
2022-11-16T01:21:40.581Z,5.00
2022-11-16T01:24:08.553Z,6.28
2022-11-16T01:26:37.307Z,5.97
2022-11-16T01:29:05.053Z,5.22
2022-11-16T01:31:32.801Z,6.75
2022-11-16T01:34:01.818Z,6.15
2022-11-16T01:36:29.806Z,6.00
2022-11-16T01:38:57.639Z,4.60
2022-11-16T01:41:26.921Z,5.82
2022-11-16T01:43:57.881Z,5.97
2022-11-16T01:46:28.586Z,4.65
2022-11-16T01:49:01.404Z,4.68
2022-11-16T01:51:31.286Z,5.75
2022-11-16T01:54:02.469Z,5.28
2022-11-16T01:56:32.683Z,4.72
2022-11-16T01:59:00.605Z,6.03
2022-11-16T02:01:28.443Z,7.47
2022-11-16T02:03:56.175Z,6.13
2022-11-16T02:06:39.701Z,5.53
2022-11-16T02:09:46.827Z,5.50
2022-11-16T02:12:32.041Z,5.88
2022-11-16T02:15:10.803Z,6.38
2022-11-16T02:17:46.408Z,6.68
2022-11-16T02:20:49.184Z,5.63
2022-11-16T02:23:37.414Z,6.35
2022-11-16T02:26:23.054Z,5.63
2022-11-16T02:29:06.196Z,6.55
2022-11-16T02:31:38.120Z,7.30
2022-11-16T02:34:11.040Z,7.00
2022-11-16T02:36:41.549Z,6.93
2022-11-16T02:39:14.363Z,7.97
2022-11-16T02:41:45.068Z,7.00
2022-11-16T02:44:19.277Z,6.03
2022-11-16T02:46:51.686Z,8.35
2022-11-16T02:49:20.768Z,7.45
2022-11-16T02:51:49.117Z,6.20
2022-11-16T02:54:19.985Z,6.47
2022-11-16T02:56:54.881Z,6.28
2022-11-16T02:59:26.843Z,6.22
2022-11-16T03:02:01.244Z,6.28
2022-11-16T03:04:33.563Z,6.78
2022-11-16T03:07:06.432Z,6.15
2022-11-16T03:09:37.844Z,6.63
2022-11-16T03:12:09.812Z,5.97
2022-11-16T03:14:43.555Z,5.88
2022-11-16T03:17:16.872Z,5.55
2022-11-16T03:19:49.920Z,7.10
2022-11-16T03:22:23.622Z,6.80
2022-11-16T03:24:51.774Z,6.82
2022-11-16T03:27:28.752Z,6.20
2022-11-16T03:30:05.539Z,6.88
2022-11-16T03:32:41.260Z,7.03
2022-11-16T03:35:14.389Z,7.75
2022-11-16T03:37:44.224Z,8.38
2022-11-16T03:40:13.098Z,8.45
2022-11-16T03:42:43.088Z,7.80
2022-11-16T03:45:13.581Z,7.80
2022-11-16T03:47:42.350Z,7.55
2022-11-16T03:50:11.042Z,7.32
2022-11-16T03:52:39.007Z,8.02
2022-11-16T03:55:07.062Z,7.15
2022-11-16T03:57:34.795Z,9.70
2022-11-16T04:00:02.751Z,8.88
2022-11-16T04:02:31.758Z,9.45
2022-11-16T04:05:19.234Z,9.63
2022-11-16T04:08:07.333Z,9.35
2022-11-16T04:10:52.936Z,10.27
2022-11-16T04:13:44.793Z,8.50
2022-11-16T04:16:30.198Z,8.75
2022-11-16T04:19:16.756Z,10.50
2022-11-16T04:22:06.482Z,9.90
2022-11-16T04:24:37.661Z,8.40
2022-11-16T04:27:27.289Z,8.48
2022-11-16T04:29:56.110Z,9.90
2022-11-16T04:32:41.551Z,11.10
2022-11-16T04:35:28.610Z,8.57
2022-11-16T04:37:57.273Z,11.43
2022-11-16T04:40:27.899Z,11.23
2022-11-16T04:42:57.112Z,11.27
2022-11-16T04:45:43.573Z,11.85
2022-11-16T04:48:11.732Z,11.02
2022-11-16T04:50:41.715Z,12.27
2022-11-16T04:53:10.153Z,10.80
2022-11-16T04:55:38.093Z,11.73
2022-11-16T04:58:06.229Z,12.32
2022-11-16T05:00:34.051Z,12.20
2022-11-16T05:03:02.095Z,11.63
2022-11-16T05:05:29.920Z,11.77
2022-11-16T05:07:58.906Z,12.68
2022-11-16T05:10:26.697Z,11.68
2022-11-16T05:12:54.614Z,13.38
2022-11-16T05:15:22.421Z,12.00
2022-11-16T05:17:51.071Z,13.27
2022-11-16T05:20:36.144Z,9.98
2022-11-16T05:23:05.237Z,12.02
2022-11-16T05:25:36.441Z,13.02
2022-11-16T05:28:04.819Z,12.65
2022-11-16T05:30:32.542Z,13.40
2022-11-16T05:33:00.207Z,10.05
2022-11-16T05:35:27.986Z,13.30
2022-11-16T05:37:55.788Z,13.00
2022-11-16T05:40:24.782Z,10.73
2022-11-16T05:42:52.440Z,11.82
2022-11-16T05:45:21.319Z,12.32
2022-11-16T05:47:49.094Z,13.48
2022-11-16T05:50:17.261Z,13.18
2022-11-16T05:52:44.877Z,13.77
2022-11-16T05:55:12.515Z,13.55
2022-11-16T05:57:41.491Z,13.52
2022-11-16T06:00:10.628Z,13.68
2022-11-16T06:02:38.355Z,14.65
2022-11-16T06:05:06.517Z,13.82
2022-11-16T06:07:34.603Z,12.07
2022-11-16T06:10:02.340Z,13.82
2022-11-16T06:12:29.985Z,15.38
2022-11-16T06:14:59.047Z,12.65
2022-11-16T06:17:26.786Z,12.73
2022-11-16T06:19:54.750Z,13.48
2022-11-16T06:22:22.418Z,14.05
2022-11-16T06:24:50.152Z,15.50
2022-11-16T06:27:17.792Z,15.20
2022-11-16T06:29:45.546Z,16.60
2022-11-16T06:32:15.528Z,14.00
2022-11-16T06:34:43.725Z,16.73
2022-11-16T06:37:11.614Z,14.02
2022-11-16T06:39:40.375Z,18.40
2022-11-16T06:42:08.055Z,15.27
2022-11-16T06:44:36.701Z,15.88
2022-11-16T06:47:04.430Z,14.55
2022-11-16T06:49:33.608Z,14.55
2022-11-16T06:52:01.312Z,13.82
2022-11-16T06:54:28.988Z,16.10
2022-11-16T06:56:56.651Z,14.30
2022-11-16T06:59:24.559Z,14.73
2022-11-16T07:01:52.467Z,13.98
2022-11-16T07:04:20.192Z,15.70
2022-11-16T07:06:49.621Z,14.75
2022-11-16T07:09:17.456Z,16.42
2022-11-16T07:11:45.480Z,17.38
2022-11-16T07:14:13.267Z,16.60
2022-11-16T07:16:40.928Z,17.40
2022-11-16T07:19:09.974Z,18.13
2022-11-16T07:21:38.750Z,17.27
2022-11-16T07:24:08.030Z,15.30
2022-11-16T07:26:36.438Z,16.98
2022-11-16T07:29:04.194Z,17.10
2022-11-16T07:31:31.875Z,17.00
2022-11-16T07:33:59.548Z,16.95
2022-11-16T07:36:27.243Z,16.85
2022-11-16T07:38:55.147Z,16.00
2022-11-16T07:41:24.181Z,12.80
2022-11-16T07:43:53.365Z,16.13
2022-11-16T07:46:46.586Z,16.52
2022-11-16T07:49:15.014Z,15.13
2022-11-16T07:51:43.729Z,17.60
2022-11-16T07:54:13.142Z,16.60
2022-11-16T07:56:43.088Z,17.48
2022-11-16T07:59:12.450Z,15.57
2022-11-16T08:01:40.273Z,18.67
2022-11-16T08:04:08.025Z,17.35
2022-11-16T08:06:35.755Z,18.63
2022-11-16T08:09:03.956Z,16.80
2022-11-16T08:11:31.727Z,17.00
2022-11-16T08:14:00.812Z,16.77
2022-11-16T08:16:28.632Z,18.10
2022-11-16T08:18:56.266Z,18.67
2022-11-16T08:21:23.915Z,18.38
2022-11-16T08:23:56.755Z,15.57
2022-11-16T08:26:26.063Z,17.50
2022-11-16T08:28:56.344Z,12.52
2022-11-16T08:31:27.594Z,17.83
2022-11-16T08:33:58.403Z,19.63
2022-11-16T08:36:26.067Z,16.90
2022-11-16T08:38:53.836Z,17.60
2022-11-16T08:41:22.362Z,17.15
2022-11-16T08:43:53.019Z,15.63
2022-11-16T08:46:21.359Z,15.88
2022-11-16T08:48:50.464Z,14.77
2022-11-16T08:51:20.406Z,16.38
2022-11-16T08:53:49.565Z,14.50
2022-11-16T08:56:19.177Z,16.42
2022-11-16T08:58:48.834Z,16.20
2022-11-16T09:01:21.037Z,17.10
2022-11-16T09:03:50.420Z,16.90
2022-11-16T09:06:18.913Z,16.80
2022-11-16T09:08:47.590Z,14.98
2022-11-16T09:11:17.657Z,18.55
2022-11-16T09:13:45.915Z,15.80
2022-11-16T09:16:16.874Z,15.55
2022-11-16T09:18:47.133Z,14.80
2022-11-16T09:21:20.541Z,16.85
2022-11-16T09:23:48.904Z,15.75
2022-11-16T09:26:20.447Z,18.25
2022-11-16T09:28:48.655Z,17.30
2022-11-16T09:31:20.380Z,19.00
2022-11-16T09:33:51.482Z,16.90
2022-11-16T09:36:21.527Z,19.13
2022-11-16T09:41:53.061Z,19.27
2022-11-16T09:44:40.374Z,18.17
2022-11-16T09:47:15.279Z,18.92
2022-11-16T09:49:51.830Z,16.75
2022-11-16T09:52:29.014Z,18.27
2022-11-16T09:55:00.789Z,17.75
2022-11-16T09:57:33.942Z,18.45
2022-11-16T10:00:12.383Z,18.13
2022-11-16T10:02:45.126Z,18.05
2022-11-16T10:05:21.109Z,18.30
2022-11-16T10:07:55.785Z,16.98
2022-11-16T10:10:33.108Z,17.45
2022-11-16T10:13:07.687Z,17.48
2022-11-16T10:15:47.175Z,17.83
2022-11-16T10:18:30.604Z,18.88
2022-11-16T10:21:15.664Z,17.48
2022-11-16T10:23:59.471Z,17.83
2022-11-16T10:26:35.475Z,14.82
2022-11-16T10:29:19.190Z,16.98
2022-11-16T10:31:58.381Z,17.10
2022-11-16T10:34:28.599Z,19.70
2022-11-16T10:37:04.166Z,19.38
2022-11-16T10:39:34.472Z,17.48
2022-11-16T10:42:07.796Z,17.73
2022-11-16T10:44:41.254Z,16.33
2022-11-16T10:47:17.583Z,13.55
2022-11-16T10:49:54.454Z,15.70
2022-11-16T10:52:23.499Z,18.95
2022-11-16T10:54:53.138Z,18.08
2022-11-16T10:57:23.682Z,18.90
2022-11-16T10:59:55.275Z,17.48
2022-11-16T11:02:33.043Z,16.55
2022-11-16T11:05:04.102Z,16.20
2022-11-16T11:07:33.855Z,17.75
2022-11-16T11:10:03.300Z,17.88
2022-11-16T11:12:39.884Z,15.75
2022-11-16T11:15:25.960Z,15.35
2022-11-16T11:18:13.460Z,15.80
2022-11-16T11:20:45.288Z,16.33
2022-11-16T11:23:16.558Z,14.63
2022-11-16T11:25:54.447Z,16.67
2022-11-16T11:28:26.114Z,16.20
2022-11-16T11:31:00.977Z,14.95
2022-11-16T11:33:31.965Z,16.08
2022-11-16T11:36:03.911Z,11.65
2022-11-16T11:38:32.614Z,16.25
2022-11-16T11:41:04.963Z,14.07
2022-11-16T11:43:34.982Z,13.40
2022-11-16T11:46:08.188Z,14.23
2022-11-16T11:48:47.690Z,12.32
2022-11-16T11:51:22.327Z,13.00
2022-11-16T11:53:57.037Z,13.85
2022-11-16T11:56:28.644Z,11.60
2022-11-16T11:58:57.441Z,13.60
2022-11-16T12:01:56.524Z,11.65
2022-11-16T12:05:10.769Z,13.35
2022-11-16T12:07:52.557Z,12.63
2022-11-16T12:10:32.893Z,12.80
2022-11-16T12:13:26.793Z,12.50
2022-11-16T12:16:08.567Z,12.15
2022-11-16T12:18:58.196Z,12.05
2022-11-16T12:21:38.369Z,11.40
2022-11-16T12:24:31.103Z,12.27
2022-11-16T12:27:07.771Z,11.55
2022-11-16T12:29:51.423Z,11.63
2022-11-16T12:32:37.046Z,12.82
2022-11-16T12:35:17.509Z,12.82
2022-11-16T12:37:50.416Z,12.23
2022-11-16T12:40:38.543Z,11.98
2022-11-16T12:43:15.398Z,11.52
2022-11-16T12:45:55.803Z,10.63
2022-11-16T12:48:59.830Z,10.65
2022-11-16T12:51:42.998Z,9.82
2022-11-16T12:54:28.498Z,12.88
2022-11-16T12:57:03.703Z,12.65
2022-11-16T12:59:51.602Z,11.20
2022-11-16T13:02:32.848Z,10.85
2022-11-16T13:05:05.410Z,10.70
2022-11-16T13:07:41.998Z,9.90
2022-11-16T13:10:17.771Z,10.38
2022-11-16T13:12:52.700Z,10.68
2022-11-16T13:15:30.659Z,9.10
2022-11-16T13:18:03.559Z,11.32
2022-11-16T13:20:38.955Z,9.70
2022-11-16T13:23:12.031Z,10.27
2022-11-16T13:25:44.084Z,9.73
2022-11-16T13:28:23.100Z,10.75
2022-11-16T13:31:01.200Z,10.15
2022-11-16T13:33:41.701Z,9.40
2022-11-16T13:36:43.487Z,9.73
2022-11-16T13:39:18.649Z,9.75
2022-11-16T13:41:50.878Z,10.32
2022-11-16T13:44:29.019Z,9.73
2022-11-16T13:47:04.132Z,10.95
2022-11-16T13:49:37.112Z,12.43
2022-11-16T13:52:22.722Z,13.23
2022-11-16T13:54:56.438Z,13.35
2022-11-16T13:57:27.677Z,11.05
2022-11-16T14:00:10.575Z,12.02
2022-11-16T14:02:40.148Z,10.75
2022-11-16T14:05:17.573Z,11.20
2022-11-16T14:07:49.538Z,13.65
2022-11-16T14:10:46.992Z,16.15
2022-11-16T14:13:39.899Z,14.93
2022-11-16T14:16:42.849Z,10.65
2022-11-16T14:19:44.188Z,15.00
2022-11-16T14:22:25.563Z,14.05
2022-11-16T14:24:58.822Z,13.18
2022-11-16T14:27:36.510Z,12.73
2022-11-16T14:30:23.781Z,13.05
2022-11-16T14:32:54.181Z,12.10
2022-11-16T14:35:31.267Z,11.60
2022-11-16T14:38:03.105Z,11.55
2022-11-16T14:40:43.575Z,10.68
2022-11-16T14:43:19.342Z,12.48
2022-11-16T14:45:52.983Z,10.30
2022-11-16T14:48:22.971Z,11.85
2022-11-16T14:51:03.945Z,10.18
2022-11-16T14:53:36.075Z,10.55
2022-11-16T14:56:10.514Z,11.40
2022-11-16T14:58:41.268Z,11.13
2022-11-16T15:01:15.133Z,10.68
2022-11-16T15:03:49.446Z,10.02
2022-11-16T15:06:17.706Z,11.48
2022-11-16T15:08:53.108Z,10.35
2022-11-16T15:11:48.076Z,10.20
2022-11-16T15:14:19.721Z,11.02
2022-11-16T15:16:52.490Z,10.32
2022-11-16T15:19:20.609Z,11.48
2022-11-16T15:21:53.710Z,11.38
2022-11-16T15:24:31.055Z,10.65
2022-11-16T15:27:10.060Z,10.68
2022-11-16T15:29:38.009Z,12.48
2022-11-16T15:32:07.287Z,11.77
2022-11-16T15:34:35.308Z,12.20
2022-11-16T15:37:02.999Z,11.75
2022-11-16T15:39:36.929Z,11.45
2022-11-16T15:42:04.849Z,12.65
2022-11-16T15:44:32.972Z,11.48
2022-11-16T15:47:04.121Z,10.80
2022-11-16T15:49:34.634Z,13.60
2022-11-16T15:52:02.769Z,11.73
2022-11-16T15:54:54.460Z,12.98
2022-11-16T15:57:25.188Z,12.25
2022-11-16T15:59:56.815Z,11.77
2022-11-16T16:02:27.387Z,12.73
2022-11-16T16:04:55.310Z,11.23
2022-11-16T16:07:40.564Z,12.93
2022-11-16T16:13:27.793Z,13.88
2022-11-16T16:16:24.725Z,12.20
2022-11-16T16:18:54.568Z,13.10
2022-11-16T16:21:23.184Z,13.63
2022-11-16T16:23:54.080Z,15.25
2022-11-16T16:26:23.466Z,13.45
2022-11-16T16:28:52.808Z,14.60
2022-11-16T16:31:21.226Z,15.50
2022-11-16T16:33:49.608Z,13.45
2022-11-16T16:36:17.397Z,14.15
2022-11-16T16:38:45.162Z,14.35
2022-11-16T16:41:23.980Z,15.45
2022-11-16T16:43:53.541Z,14.65
2022-11-16T16:46:21.802Z,16.45
2022-11-16T16:48:51.127Z,15.02
2022-11-16T16:51:20.871Z,14.23
2022-11-16T16:53:48.552Z,14.93
2022-11-16T16:56:19.310Z,16.35
2022-11-16T16:58:47.017Z,14.07
2022-11-16T17:01:16.158Z,14.20
2022-11-16T17:03:43.943Z,13.23
2022-11-16T17:06:12.398Z,12.45
2022-11-16T17:08:40.260Z,14.02
2022-11-16T17:11:08.929Z,14.32
2022-11-16T17:13:36.933Z,13.23
2022-11-16T17:16:08.255Z,12.50
2022-11-16T17:18:37.496Z,9.52
2022-11-16T17:21:06.348Z,12.85
2022-11-16T17:23:35.256Z,12.32
2022-11-16T17:26:04.794Z,12.25
2022-11-16T17:28:32.905Z,13.27
2022-11-16T17:31:05.007Z,11.75
2022-11-16T17:33:35.012Z,12.05
2022-11-16T17:36:05.424Z,11.20
2022-11-16T17:38:34.235Z,9.65
2022-11-16T17:41:06.523Z,11.60
2022-11-16T17:43:35.445Z,13.02
2022-11-16T17:46:05.486Z,12.50
2022-11-16T17:48:33.882Z,10.85
2022-11-16T17:51:01.718Z,11.70
2022-11-16T17:53:32.860Z,11.48
2022-11-16T17:56:01.360Z,10.98
2022-11-16T17:58:30.260Z,10.23
2022-11-16T18:00:58.899Z,10.48
2022-11-16T18:03:28.272Z,10.35
2022-11-16T18:06:02.178Z,10.60
2022-11-16T18:08:32.183Z,11.43
2022-11-16T18:11:05.140Z,11.25
2022-11-16T18:13:34.634Z,10.15
2022-11-16T18:16:08.860Z,9.75
2022-11-16T18:18:38.067Z,8.38
2022-11-16T18:21:11.967Z,10.43
2022-11-16T18:23:44.266Z,10.68
2022-11-16T18:26:17.186Z,10.98
2022-11-16T18:28:45.852Z,9.52
2022-11-16T18:31:15.411Z,9.10
2022-11-16T18:33:43.757Z,8.32
2022-11-16T18:36:13.158Z,8.43
2022-11-16T18:38:41.097Z,8.43
2022-11-16T18:41:20.209Z,6.95
2022-11-16T18:43:52.815Z,8.38
2022-11-16T18:46:21.390Z,7.25
2022-11-16T18:48:49.227Z,8.02
2022-11-16T18:51:18.193Z,7.35
2022-11-16T18:53:46.536Z,6.65
2022-11-16T18:56:16.965Z,6.00
2022-11-16T18:58:53.565Z,7.00
2022-11-16T19:01:23.811Z,6.60
2022-11-16T19:03:52.452Z,5.60
2022-11-16T19:06:21.149Z,5.43
2022-11-16T19:08:55.816Z,8.30
2022-11-16T19:11:30.746Z,6.18
2022-11-16T19:14:03.971Z,6.68
2022-11-16T19:16:32.210Z,5.25
2022-11-16T19:19:01.353Z,5.05
2022-11-16T19:21:29.693Z,5.80
2022-11-16T19:23:58.688Z,6.85
2022-11-16T19:26:29.006Z,5.60
2022-11-16T19:28:57.026Z,6.78
2022-11-16T19:31:27.366Z,5.97
2022-11-16T19:34:01.015Z,5.45
2022-11-16T19:36:31.125Z,5.07
2022-11-16T19:38:59.095Z,3.80
2022-11-16T19:41:28.846Z,5.85
2022-11-16T19:43:59.744Z,4.35
2022-11-16T19:46:28.707Z,4.70
2022-11-16T19:48:57.318Z,4.45
2022-11-16T19:51:26.608Z,5.05
2022-11-16T19:53:55.196Z,5.28
2022-11-16T19:56:24.861Z,5.10
2022-11-16T19:58:53.918Z,5.32
2022-11-16T20:01:23.486Z,5.47
2022-11-16T20:03:51.346Z,6.25
2022-11-16T20:06:21.253Z,5.07
2022-11-16T20:08:50.468Z,4.40
2022-11-16T20:11:20.636Z,4.78
2022-11-16T20:13:50.017Z,4.37
2022-11-16T20:16:22.251Z,5.35
2022-11-16T20:18:52.958Z,5.93
2022-11-16T20:21:25.597Z,4.65
2022-11-16T20:23:55.522Z,4.80
2022-11-16T20:26:25.265Z,3.92
2022-11-16T20:28:54.629Z,4.97
2022-11-16T20:31:27.507Z,5.90
2022-11-16T20:33:57.940Z,4.40
2022-11-16T20:36:27.802Z,3.75
2022-11-16T20:38:57.221Z,4.63
2022-11-16T20:41:27.484Z,5.28
2022-11-16T20:43:57.445Z,3.85
2022-11-16T20:46:28.886Z,4.22
2022-11-16T20:49:00.806Z,3.80
2022-11-16T20:51:30.198Z,3.92
2022-11-16T20:53:58.804Z,3.95
2022-11-16T20:56:28.748Z,5.20
2022-11-16T20:58:56.900Z,5.30
2022-11-16T21:01:31.440Z,3.97
2022-11-16T21:04:01.026Z,4.25
2022-11-16T21:06:29.580Z,3.35
2022-11-16T21:08:57.760Z,3.35
2022-11-16T21:11:28.813Z,3.42
2022-11-16T21:14:14.678Z,2.47
2022-11-16T21:16:44.226Z,3.03
2022-11-16T21:19:12.803Z,4.20
2022-11-16T21:21:41.441Z,4.10
2022-11-16T21:24:10.346Z,3.55
2022-11-16T21:26:38.238Z,4.40
2022-11-16T21:29:06.617Z,3.83
2022-11-16T21:31:36.269Z,3.60
2022-11-16T21:34:07.904Z,4.57
2022-11-16T21:36:36.499Z,3.70
2022-11-16T21:39:04.468Z,3.80
2022-11-16T21:41:32.565Z,3.28
2022-11-16T21:44:01.456Z,4.78
2022-11-16T21:46:29.253Z,3.10
2022-11-16T21:48:57.138Z,3.33
2022-11-16T21:51:27.568Z,3.20
2022-11-16T21:53:58.514Z,3.47
2022-11-16T21:56:27.089Z,2.88
2022-11-16T21:58:55.174Z,4.05
2022-11-16T22:01:24.417Z,3.45
2022-11-16T22:04:06.593Z,4.70
2022-11-16T22:06:53.546Z,4.30
2022-11-16T22:09:21.632Z,4.10
2022-11-16T22:11:49.384Z,4.25
2022-11-16T22:14:17.157Z,4.95
2022-11-16T22:16:47.481Z,5.18
2022-11-16T22:19:15.191Z,3.90
2022-11-16T22:21:44.316Z,3.65
2022-11-16T22:24:12.039Z,3.10
2022-11-16T22:26:40.991Z,4.65
2022-11-16T22:29:08.878Z,4.30
2022-11-16T22:31:36.603Z,5.13
2022-11-16T22:34:04.364Z,4.23
2022-11-16T22:36:32.064Z,3.63
2022-11-16T22:39:02.314Z,5.68
2022-11-16T22:41:30.117Z,4.60
2022-11-16T22:43:57.840Z,4.75
2022-11-16T22:46:25.525Z,5.82
2022-11-16T22:48:53.285Z,4.50
2022-11-16T22:51:22.879Z,5.50
2022-11-16T22:53:53.587Z,4.37
2022-11-16T22:56:22.651Z,4.40
2022-11-16T22:58:51.045Z,5.85
2022-11-16T23:01:19.822Z,5.27
2022-11-16T23:03:51.203Z,4.83
2022-11-16T23:06:19.314Z,4.90
2022-11-16T23:08:47.044Z,6.30
2022-11-16T23:11:39.372Z,4.70
2022-11-16T23:14:29.092Z,4.37
2022-11-16T23:16:56.881Z,4.38
2022-11-16T23:19:43.008Z,4.97
2022-11-16T23:22:32.358Z,5.07
2022-11-16T23:25:17.965Z,4.60
2022-11-16T23:27:53.821Z,5.03
2022-11-16T23:30:23.272Z,4.47
2022-11-16T23:32:51.115Z,5.43
2022-11-16T23:35:19.200Z,3.83
2022-11-16T23:37:57.975Z,5.67
2022-11-16T23:40:28.032Z,3.63
2022-11-16T23:43:13.734Z,4.63
2022-11-16T23:45:43.303Z,3.92
2022-11-16T23:48:12.391Z,4.27
2022-11-16T23:50:40.208Z,4.47
2022-11-16T23:53:09.269Z,4.03
2022-11-16T23:55:39.174Z,4.95
2022-11-16T23:58:07.861Z,4.80
